Time;durP1;ratioP1;P1;durP2;ratioP2;P2;SDS_P1;SDS_P2;PMS_P1;PMS_P2;Temp;Humidity;BMP_temperature;BMP_pressure;BME280_temperature;BME280_humidity;BME280_pressure;Samples;Min_cycle;Max_cycle;Signal;HPM_P1;HPM_P2
2024/01/08 00:01:27;;;;;;;2.00;1.10;;;;;;;9.80;100.00;97121.38;5098596;28;20040;-90
2024/01/08 00:03:57;;;;;;;2.30;1.05;;;;;;;10.41;100.00;97198.88;5102427;28;20043;-93
2024/01/08 00:06:23;;;;;;;3.78;0.73;;;;;;;10.28;100.00;97150.81;5102395;28;20036;-94
2024/01/08 00:08:49;;;;;;;3.80;0.88;;;;;;;10.37;100.00;97161.00;5101234;28;20043;-93
2024/01/08 00:11:15;;;;;;;2.88;0.75;;;;;;;10.22;100.00;97145.81;5112416;28;20040;-92
2024/01/08 00:13:44;;;;;;;2.17;0.93;;;;;;;10.05;100.00;97152.84;5105335;28;20047;-92
2024/01/08 00:16:13;;;;;;;2.75;0.90;;;;;;;9.99;100.00;97158.47;5098703;28;20036;-94
2024/01/08 00:18:41;;;;;;;3.92;1.30;;;;;;;10.29;100.00;97176.47;5103672;28;20138;-95
2024/01/08 00:21:07;;;;;;;3.08;0.90;;;;;;;10.04;100.00;97134.31;5102847;28;20044;-94
2024/01/08 00:23:34;;;;;;;4.15;1.13;;;;;;;9.77;100.00;97125.97;5100045;28;20059;-94
2024/01/08 00:26:00;;;;;;;1.42;0.70;;;;;;;9.98;100.00;97124.03;5109894;28;20067;-94
2024/01/08 00:28:27;;;;;;;1.52;0.70;;;;;;;10.28;100.00;97211.94;5107450;28;20043;-95
2024/01/08 00:30:56;;;;;;;3.05;0.85;;;;;;;10.11;100.00;97177.38;5106082;28;20015;-95
2024/01/08 00:33:23;;;;;;;3.33;0.73;;;;;;;10.34;100.00;97203.66;5102417;28;20044;-94
2024/01/08 00:35:53;;;;;;;2.42;1.23;;;;;;;10.26;100.00;97193.41;5109828;28;20480;-94
2024/01/08 00:38:20;;;;;;;3.85;0.77;;;;;;;10.47;100.00;97227.78;5110374;28;20044;-94
2024/01/08 00:40:50;;;;;;;2.30;0.80;;;;;;;10.30;100.00;97199.44;5106086;28;20040;-95
2024/01/08 00:43:18;;;;;;;2.75;0.88;;;;;;;10.01;100.00;97142.44;5107063;28;20032;-95
2024/01/08 00:45:44;;;;;;;2.15;0.90;;;;;;;10.20;100.00;97184.88;5106347;28;20062;-94
2024/01/08 00:48:13;;;;;;;3.60;0.73;;;;;;;10.20;100.00;97166.28;5104245;28;20044;-95
2024/01/08 00:50:40;;;;;;;4.45;1.15;;;;;;;9.93;100.00;97148.16;5107328;28;20036;-93
2024/01/08 00:53:10;;;;;;;1.85;0.63;;;;;;;9.93;100.00;97141.97;5108074;28;20065;-95
2024/01/08 00:55:39;;;;;;;5.65;1.35;;;;;;;10.52;100.00;97231.09;5103879;28;20043;-94
2024/01/08 00:58:08;;;;;;;3.85;1.05;;;;;;;10.35;100.00;97210.69;5104877;28;20412;-94
2024/01/08 01:00:38;;;;;;;4.40;0.93;;;;;;;10.08;100.00;97152.69;5106581;28;20484;-92
2024/01/08 01:03:04;;;;;;;2.22;0.50;;;;;;;10.21;100.00;97229.97;5113799;28;20048;-94
2024/01/08 01:05:31;;;;;;;3.38;0.80;;;;;;;10.27;100.00;97205.72;5097392;28;20382;-94
2024/01/08 01:07:57;;;;;;;2.35;0.70;;;;;;;9.94;100.00;97184.38;5103798;28;20020;-96
2024/01/08 01:10:24;;;;;;;1.70;0.68;;;;;;;9.89;100.00;97151.91;5109352;28;20051;-94
2024/01/08 01:12:50;;;;;;;2.90;0.60;;;;;;;9.70;100.00;97156.41;5102528;28;20044;-95
2024/01/08 01:15:17;;;;;;;2.25;0.88;;;;;;;10.03;100.00;97199.84;5103682;28;20543;-95
2024/01/08 01:17:44;;;;;;;1.67;0.50;;;;;;;9.96;100.00;97174.56;5102954;28;20499;-93
2024/01/08 01:20:15;;;;;;;3.17;0.80;;;;;;;9.86;100.00;97166.16;5105255;28;20062;-94
2024/01/08 01:22:42;;;;;;;0.80;0.40;;;;;;;9.77;100.00;97163.13;5111335;28;20085;-93
2024/01/08 01:25:09;;;;;;;2.30;0.63;;;;;;;10.28;100.00;97238.50;5107808;28;20488;-93
2024/01/08 01:27:39;;;;;;;1.67;0.50;;;;;;;10.27;100.00;97226.97;5117153;28;20050;-94
2024/01/08 01:30:06;;;;;;;1.00;0.50;;;;;;;10.05;100.00;97213.06;5122078;28;20036;-94
2024/01/08 01:32:32;;;;;;;1.58;0.40;;;;;;;10.15;100.00;97201.06;5123023;28;20066;-95
2024/01/08 01:34:58;;;;;;;2.58;0.55;;;;;;;9.85;100.00;97188.38;5122275;28;20039;-95
2024/01/08 01:37:27;;;;;;;0.90;0.52;;;;;;;9.83;100.00;97169.00;5122804;28;20058;-94
2024/01/08 01:39:53;;;;;;;1.08;0.40;;;;;;;10.09;100.00;97265.09;5121774;28;20044;-93
2024/01/08 01:42:19;;;;;;;3.08;0.50;;;;;;;9.78;100.00;97192.28;5121864;28;20047;-95
2024/01/08 01:44:47;;;;;;;1.25;0.30;;;;;;;9.66;100.00;97177.78;5122718;28;20638;-94
2024/01/08 01:47:15;;;;;;;3.60;0.40;;;;;;;9.62;100.00;97191.28;5116787;28;20842;-94
2024/01/08 01:49:44;;;;;;;2.10;0.50;;;;;;;10.03;100.00;97262.75;5123519;28;20047;-93
2024/01/08 01:52:10;;;;;;;1.13;0.38;;;;;;;9.70;100.00;97209.50;5120951;28;20107;-93
2024/01/08 01:54:39;;;;;;;0.30;0.30;;;;;;;9.30;100.00;97177.75;5117047;28;20068;-92
2024/01/08 01:57:08;;;;;;;0.60;0.30;;;;;;;9.66;100.00;97209.63;5122139;28;20497;-93
2024/01/08 01:59:37;;;;;;;1.45;0.35;;;;;;;9.72;100.00;97228.88;5121262;28;20096;-93
2024/01/08 02:02:10;;;;;;;1.65;0.30;;;;;;;9.80;100.00;97251.47;5120161;28;20035;-93
2024/01/08 02:04:43;;;;;;;0.30;0.20;;;;;;;9.66;100.00;97220.25;5119506;28;20086;-93
2024/01/08 02:07:09;;;;;;;;;;;;;;;10.03;100.00;97274.22;5120385;28;20058;-93
2024/01/08 02:09:40;;;;;;;0.55;0.35;;;;;;;9.79;100.00;97256.84;5122165;28;19943;-93
2024/01/08 02:12:14;;;;;;;1.23;0.30;;;;;;;9.85;100.00;97264.50;5120066;28;20567;-92
2024/01/08 02:14:41;;;;;;;1.10;0.20;;;;;;;9.84;100.00;97262.78;5121406;28;20051;-92
2024/01/08 02:17:09;;;;;;;0.30;0.30;;;;;;;9.99;100.00;97264.69;5119973;28;20461;-92
2024/01/08 02:19:36;;;;;;;1.13;0.30;;;;;;;9.56;100.00;97208.34;5125321;28;20069;-92
2024/01/08 02:22:02;;;;;;;1.38;0.60;;;;;;;9.43;100.00;97181.56;5123320;28;20119;-93
2024/01/08 02:24:29;;;;;;;1.50;0.40;;;;;;;9.57;100.00;97193.31;5123252;28;20070;-93
2024/01/08 02:27:00;;;;;;;0.50;0.50;;;;;;;9.99;100.00;97230.16;5110557;28;20099;-92
2024/01/08 02:29:27;;;;;;;1.05;0.38;;;;;;;9.92;100.00;97196.03;5108475;28;20031;-93
2024/01/08 02:31:55;;;;;;;0.60;0.20;;;;;;;9.68;100.00;97190.13;5107954;28;20052;-95
2024/01/08 02:34:22;;;;;;;0.30;0.30;;;;;;;9.71;100.00;97203.25;5103964;28;20778;-94
2024/01/08 02:36:50;;;;;;;1.08;0.28;;;;;;;9.75;100.00;97224.25;5104424;28;20186;-92
2024/01/08 02:39:20;;;;;;;2.45;0.30;;;;;;;9.53;100.00;97242.16;5106240;28;20403;-92
2024/01/08 02:41:50;;;;;;;;;;;;;;;9.94;100.00;97273.81;5114152;28;20107;-93
2024/01/08 02:44:16;;;;;;;1.10;0.38;;;;;;;9.91;100.00;97261.56;5108319;28;19920;-93
2024/01/08 02:46:43;;;;;;;2.25;1.38;;;;;;;9.22;100.00;97199.34;5106297;28;20040;-94
2024/01/08 02:49:09;;;;;;;0.30;0.30;;;;;;;9.63;100.00;97246.94;5106044;28;20050;-91
2024/01/08 02:51:35;;;;;;;1.33;0.40;;;;;;;9.29;100.00;97189.31;5105838;28;20067;-93
2024/01/08 02:54:02;;;;;;;2.88;0.52;;;;;;;9.58;100.00;97205.63;5114449;28;20036;-91
2024/01/08 02:56:39;;;;;;;0.80;0.40;;;;;;;10.01;100.00;97277.88;5106641;28;20119;-93
2024/01/08 02:59:07;;;;;;;1.75;0.47;;;;;;;9.27;100.00;97185.03;5119048;28;20032;-93
2024/01/08 03:01:33;;;;;;;1.13;0.35;;;;;;;9.72;100.00;97244.78;5104811;28;20071;-94
2024/01/08 03:04:00;;;;;;;2.30;0.43;;;;;;;9.83;100.00;97250.44;5120401;28;20028;-94
2024/01/08 03:06:25;;;;;;;1.98;0.47;;;;;;;9.87;100.00;97265.28;5107065;28;20040;-94
2024/01/08 03:08:52;;;;;;;1.15;0.45;;;;;;;9.41;100.00;97225.88;5109607;28;20500;-92
2024/01/08 03:11:21;;;;;;;1.65;0.40;;;;;;;9.81;100.00;97292.13;5103496;28;20126;-93
2024/01/08 03:13:47;;;;;;;2.25;0.40;;;;;;;9.83;100.00;97253.09;5106986;28;20055;-94
2024/01/08 03:16:18;;;;;;;1.45;0.50;;;;;;;9.43;100.00;97223.13;5103765;28;20044;-93
2024/01/08 03:18:50;;;;;;;1.50;0.32;;;;;;;9.50;100.00;97198.06;5107045;28;20036;-93
2024/01/08 03:21:15;;;;;;;1.80;0.50;;;;;;;9.57;100.00;97204.78;5106173;28;20032;-93
2024/01/08 03:23:46;;;;;;;0.68;0.40;;;;;;;9.84;100.00;97260.97;5106441;28;20036;-93
2024/01/08 03:26:12;;;;;;;1.92;0.90;;;;;;;9.37;100.00;97220.81;5115680;28;20039;-94
2024/01/08 03:28:45;;;;;;;3.63;0.60;;;;;;;9.60;100.00;97247.06;5125145;28;20166;-93
2024/01/08 03:31:10;;;;;;;;;;;;;;;9.81;100.00;97298.28;5122647;28;20401;-93
2024/01/08 03:33:38;;;;;;;0.73;0.32;;;;;;;9.51;100.00;97263.44;5123717;28;19926;-94
2024/01/08 03:36:09;;;;;;;0.80;0.50;;;;;;;9.80;100.00;97264.72;5124998;28;20039;-93
2024/01/08 03:38:36;;;;;;;2.35;0.65;;;;;;;9.52;100.00;97213.88;5123899;28;20039;-93
2024/01/08 03:41:03;;;;;;;1.45;0.85;;;;;;;9.39;100.00;97253.41;5123579;28;20045;-93
2024/01/08 03:43:30;;;;;;;2.70;0.50;;;;;;;9.68;100.00;97305.13;5122258;28;20050;-93
2024/01/08 03:45:58;;;;;;;0.90;0.45;;;;;;;9.64;100.00;97275.19;5120484;28;20035;-93
2024/01/08 03:48:27;;;;;;;1.45;0.68;;;;;;;9.44;100.00;97222.22;5124968;28;20040;-92
2024/01/08 03:50:58;;;;;;;1.05;0.57;;;;;;;9.48;100.00;97231.75;5123245;28;20039;-93
2024/01/08 03:53:25;;;;;;;1.63;0.60;;;;;;;9.57;100.00;97231.31;5124744;28;20039;-93
2024/01/08 03:55:52;;;;;;;1.40;0.47;;;;;;;9.48;100.00;97230.88;5124262;28;20096;-95
2024/01/08 03:58:19;;;;;;;1.20;0.60;;;;;;;9.58;100.00;97232.16;5125370;28;20127;-94
2024/01/08 04:00:49;;;;;;;2.38;0.52;;;;;;;9.66;100.00;97246.78;5123782;28;20043;-94
2024/01/08 04:03:17;;;;;;;3.28;0.77;;;;;;;9.62;100.00;97239.06;5122944;28;20043;-94
2024/01/08 04:05:46;;;;;;;2.20;0.65;;;;;;;9.17;100.00;97243.81;5118926;27;20046;-94
2024/01/08 04:08:15;;;;;;;2.35;0.60;;;;;;;9.66;100.00;97297.22;5127060;27;20102;-92
2024/01/08 04:10:41;;;;;;;1.05;0.40;;;;;;;9.75;100.00;97279.16;5130453;27;20035;-93
2024/01/08 04:13:10;;;;;;;4.60;0.50;;;;;;;9.72;100.00;97309.34;5131546;27;20074;-94
2024/01/08 04:15:36;;;;;;;5.82;1.00;;;;;;;9.77;100.00;97269.31;5130139;27;20043;-94
2024/01/08 04:18:03;;;;;;;3.40;0.75;;;;;;;9.53;100.00;97274.00;5130787;27;20031;-93
2024/01/08 04:20:32;;;;;;;3.20;0.55;;;;;;;10.17;100.00;97333.78;5126508;27;20042;-95
2024/01/08 04:22:59;;;;;;;1.95;0.70;;;;;;;9.91;100.00;97285.47;5132240;27;20024;-93
2024/01/08 04:25:30;;;;;;;4.10;0.73;;;;;;;10.13;100.00;97314.50;5132250;27;20055;-93
2024/01/08 04:27:56;;;;;;;6.03;0.88;;;;;;;10.20;100.00;97323.00;5130071;27;20110;-94
2024/01/08 04:30:23;;;;;;;1.42;0.60;;;;;;;9.82;100.00;97256.66;5129714;27;20023;-93
2024/01/08 04:32:55;;;;;;;4.25;0.63;;;;;;;9.88;100.00;97305.03;5130831;27;20031;-94
2024/01/08 04:35:22;;;;;;;2.97;0.80;;;;;;;9.73;100.00;97329.66;5129774;27;20061;-93
2024/01/08 04:37:49;;;;;;;2.25;0.93;;;;;;;9.83;100.00;97316.81;5131425;27;20082;-93
2024/01/08 04:40:15;;;;;;;1.77;0.70;;;;;;;9.49;100.00;97267.09;5131352;27;20043;-94
2024/01/08 04:42:48;;;;;;;4.15;0.80;;;;;;;9.93;100.00;97352.63;5131171;27;20067;-91
2024/01/08 04:45:15;;;;;;;1.67;0.73;;;;;;;9.54;100.00;97279.25;5130737;27;20430;-96
2024/01/08 04:47:43;;;;;;;6.68;1.00;;;;;;;9.76;100.00;97302.09;5130799;27;20058;-95
2024/01/08 04:50:11;;;;;;;2.38;0.90;;;;;;;9.52;100.00;97281.09;5133534;27;20066;-91
2024/01/08 04:52:38;;;;;;;3.95;1.02;;;;;;;9.83;100.00;97306.19;5131753;27;20031;-94
2024/01/08 04:55:08;;;;;;;3.65;0.93;;;;;;;9.66;100.00;97283.09;5134170;27;20043;-93
2024/01/08 04:57:37;;;;;;;3.20;0.80;;;;;;;9.59;100.00;97271.91;5130889;27;20023;-92
2024/01/08 05:00:11;;;;;;;1.98;0.70;;;;;;;9.76;100.00;97288.81;5132779;27;20035;-94
2024/01/08 05:02:38;;;;;;;4.50;0.70;;;;;;;9.77;100.00;97323.25;5127964;27;20062;-93
2024/01/08 05:05:09;;;;;;;3.40;1.02;;;;;;;9.99;100.00;97356.78;5127492;27;20069;-96
2024/01/08 05:07:35;;;;;;;2.50;0.70;;;;;;;9.64;100.00;97295.56;5129442;27;20043;-94
2024/01/08 05:10:14;;;;;;;1.67;0.63;;;;;;;9.91;100.00;97338.56;5128333;27;20512;-93
2024/01/08 05:12:45;;;;;;;3.35;1.08;;;;;;;9.35;100.00;97291.63;5128156;27;20103;-93
2024/01/08 05:15:14;;;;;;;1.08;0.50;;;;;;;9.43;100.00;97279.75;5129251;27;20039;-93
2024/01/08 05:17:43;;;;;;;2.95;0.90;;;;;;;10.00;100.00;97362.03;5132121;27;20035;-94
2024/01/08 05:20:11;;;;;;;2.55;0.75;;;;;;;9.68;100.00;97322.84;5129792;27;20040;-94
2024/01/08 05:22:39;;;;;;;3.53;0.80;;;;;;;9.56;100.00;97325.13;5130817;27;20071;-92
2024/01/08 05:25:07;;;;;;;4.03;0.85;;;;;;;9.54;100.00;97320.81;5131146;27;20404;-92
2024/01/08 05:27:33;;;;;;;4.13;0.90;;;;;;;9.60;100.00;97347.94;5127602;27;20055;-94
2024/01/08 05:29:59;;;;;;;2.08;0.77;;;;;;;9.36;100.00;97314.56;5127911;27;20492;-93
2024/01/08 05:32:26;;;;;;;1.83;0.70;;;;;;;9.76;100.00;97379.97;5123761;27;20035;-93
2024/01/08 05:34:54;;;;;;;3.58;0.60;;;;;;;9.62;100.00;97354.03;5124708;27;20051;-93
2024/01/08 05:37:23;;;;;;;0.95;0.52;;;;;;;9.50;100.00;97309.50;5123246;27;20038;-93
2024/01/08 05:39:49;;;;;;;5.00;1.00;;;;;;;9.43;100.00;97322.19;5122993;27;20027;-93
2024/01/08 05:42:15;;;;;;;1.90;0.60;;;;;;;10.07;100.00;97397.13;5126547;27;20062;-93
2024/01/08 05:44:44;;;;;;;0.95;0.60;;;;;;;9.73;100.00;97332.31;5119741;27;20039;-94
2024/01/08 05:47:10;;;;;;;2.00;0.60;;;;;;;9.95;100.00;97387.06;5121777;27;20035;-92
2024/01/08 05:49:38;;;;;;;1.58;0.77;;;;;;;10.01;100.00;97382.31;5124929;27;20058;-92
2024/01/08 05:52:05;;;;;;;2.83;0.70;;;;;;;9.57;100.00;97323.34;5126811;27;20035;-93
2024/01/08 05:54:31;;;;;;;1.88;0.75;;;;;;;9.42;100.00;97346.13;5122875;27;20050;-90
2024/01/08 05:56:59;;;;;;;2.00;0.47;;;;;;;9.80;100.00;97389.50;5123683;27;20039;-92
2024/01/08 05:59:27;;;;;;;4.38;0.70;;;;;;;9.38;100.00;97336.59;5122007;27;20055;-93
2024/01/08 06:01:54;;;;;;;2.22;0.60;;;;;;;9.87;100.00;97422.81;5120177;27;20047;-93
2024/01/08 06:04:23;;;;;;;2.90;0.65;;;;;;;9.58;100.00;97354.25;5125203;27;20083;-91
2024/01/08 06:06:55;;;;;;;2.53;0.60;;;;;;;9.22;100.00;97353.19;5123085;27;20042;-92
2024/01/08 06:09:20;;;;;;;2.42;0.73;;;;;;;9.44;100.00;97349.56;5121865;27;20050;-92
2024/01/08 06:11:46;;;;;;;3.47;0.88;;;;;;;9.45;100.00;97383.13;5123911;27;20063;-92
2024/01/08 06:14:12;;;;;;;0.60;0.45;;;;;;;9.09;100.00;97333.44;5125406;27;20046;-93
2024/01/08 06:16:38;;;;;;;3.03;0.80;;;;;;;9.19;100.00;97357.75;5124814;27;20050;-94
2024/01/08 06:19:05;;;;;;;2.83;0.52;;;;;;;9.71;100.00;97418.25;5125921;27;20043;-93
2024/01/08 06:21:31;;;;;;;4.88;1.00;;;;;;;9.57;100.00;97403.81;5124036;27;20092;-93
2024/01/08 06:23:59;;;;;;;2.30;0.70;;;;;;;9.21;100.00;97342.63;5126286;27;20051;-94
2024/01/08 06:26:28;;;;;;;3.38;0.82;;;;;;;9.23;100.00;97354.03;5118024;28;20047;-93
2024/01/08 06:28:55;;;;;;;4.78;0.73;;;;;;;9.52;100.00;97408.47;5115052;28;20059;-93
2024/01/08 06:31:21;;;;;;;2.33;0.57;;;;;;;9.83;100.00;97444.25;5110873;28;20042;-93
2024/01/08 06:33:46;;;;;;;1.38;0.80;;;;;;;9.89;100.00;97449.28;5111083;28;20135;-94
2024/01/08 06:36:13;;;;;;;5.53;1.15;;;;;;;9.77;100.00;97450.69;5103532;28;20028;-92
2024/01/08 06:38:51;;;;;;;3.30;0.85;;;;;;;9.29;100.00;97379.44;5104049;28;20198;-92
2024/01/08 06:41:20;;;;;;;2.45;0.82;;;;;;;9.32;100.00;97363.38;5105524;28;20185;-93
2024/01/08 06:43:49;;;;;;;4.07;0.77;;;;;;;9.39;100.00;97372.78;5113138;28;20429;-94
2024/01/08 06:46:18;;;;;;;7.90;1.52;;;;;;;9.61;100.00;97428.44;5117669;28;20048;-91
2024/01/08 06:48:44;;;;;;;4.63;1.08;;;;;;;9.66;100.00;97431.75;5104419;28;20088;-93
2024/01/08 06:51:14;;;;;;;1.38;0.63;;;;;;;9.81;100.00;97457.59;5110020;28;20036;-93
2024/01/08 06:53:43;;;;;;;2.55;1.17;;;;;;;9.60;100.00;97435.50;5111112;28;20101;-93
2024/01/08 06:56:09;;;;;;;1.10;0.52;;;;;;;9.71;100.00;97436.84;5105196;28;20043;-93
2024/01/08 06:58:36;;;;;;;4.75;1.00;;;;;;;9.32;100.00;97395.22;5111982;28;20040;-93
2024/01/08 07:01:02;;;;;;;3.45;0.82;;;;;;;9.76;100.00;97470.22;5104125;28;20082;-94
2024/01/08 07:03:31;;;;;;;4.50;1.10;;;;;;;9.75;100.00;97475.59;5102328;28;20063;-93
2024/01/08 07:05:59;;;;;;;5.43;0.98;;;;;;;9.75;100.00;97500.34;5104128;28;20043;-94
2024/01/08 07:08:27;;;;;;;3.25;0.80;;;;;;;9.63;100.00;97448.66;5107415;28;20036;-92
2024/01/08 07:10:53;;;;;;;5.63;0.82;;;;;;;9.84;100.00;97478.69;5108861;28;20055;-92
2024/01/08 07:13:22;;;;;;;3.35;1.23;;;;;;;10.02;100.00;97498.25;5106931;28;20075;-94
2024/01/08 07:15:55;;;;;;;2.00;1.15;;;;;;;9.25;100.00;97413.19;5110178;28;20040;-93
2024/01/08 07:18:23;;;;;;;3.63;1.02;;;;;;;9.49;100.00;97461.66;5088966;28;20039;-93
2024/01/08 07:20:52;;;;;;;6.32;2.33;;;;;;;9.87;100.00;97525.50;5098443;28;20066;-91
2024/01/08 07:23:18;;;;;;;5.53;1.17;;;;;;;9.60;100.00;97517.78;5091799;28;20054;-95
2024/01/08 07:25:44;;;;;;;5.32;1.20;;;;;;;9.36;100.00;97469.28;5101951;27;20047;-94
2024/01/08 07:28:13;;;;;;;2.67;1.25;;;;;;;9.09;100.00;97451.94;5120846;28;20043;-93
2024/01/08 07:30:41;;;;;;;5.13;1.00;;;;;;;9.11;100.00;97420.88;5124577;28;20495;-95
2024/01/08 07:33:08;;;;;;;4.47;1.20;;;;;;;9.59;100.00;97516.06;5119335;28;20043;-92
2024/01/08 07:35:35;;;;;;;3.92;1.20;;;;;;;9.74;100.00;97503.09;5126480;28;20449;-93
2024/01/08 07:38:04;;;;;;;6.32;0.90;;;;;;;9.78;100.00;97518.81;5120565;28;20040;-91
2024/01/08 07:40:32;;;;;;;2.67;1.17;;;;;;;9.63;100.00;97491.13;5123414;27;20078;-94
2024/01/08 07:42:58;;;;;;;3.88;1.10;;;;;;;9.71;100.00;97466.88;5130383;27;20035;-94
2024/01/08 07:45:29;;;;;;;2.92;0.95;;;;;;;9.69;100.00;97452.81;5130521;27;20403;-94
2024/01/08 07:47:56;;;;;;;2.92;0.90;;;;;;;9.39;100.00;97436.47;5130114;27;20043;-92
2024/01/08 07:50:26;;;;;;;5.65;1.30;;;;;;;9.87;100.00;97541.44;5127372;27;20043;-94
2024/01/08 07:52:54;;;;;;;9.32;1.52;;;;;;;10.24;100.00;97537.97;5128806;27;20023;-93
2024/01/08 07:55:26;;;;;;;2.05;0.80;;;;;;;9.78;100.00;97451.53;5129782;27;20043;-94
2024/01/08 07:57:55;;;;;;;1.92;0.98;;;;;;;10.12;100.00;97482.75;5129368;27;20039;-92
2024/01/08 08:00:24;;;;;;;2.10;0.98;;;;;;;10.15;100.00;97492.38;5127836;27;20272;-93
2024/01/08 08:02:54;;;;;;;2.70;1.10;;;;;;;9.79;100.00;97474.53;5124610;27;20072;-92
2024/01/08 08:05:20;;;;;;;4.97;0.90;;;;;;;10.35;100.00;97521.59;5120797;27;20704;-92
2024/01/08 08:07:50;;;;;;;4.63;1.10;;;;;;;10.34;100.00;97533.13;5119563;27;20035;-92
2024/01/08 08:10:16;;;;;;;4.72;0.90;;;;;;;10.39;100.00;97560.38;5123385;27;20062;-93
2024/01/08 08:12:42;;;;;;;6.32;1.20;;;;;;;10.22;100.00;97536.34;5121743;27;20039;-91
2024/01/08 08:15:10;;;;;;;2.20;1.13;;;;;;;10.56;100.00;97567.56;5121581;27;20043;-91
2024/01/08 08:17:40;;;;;;;8.48;1.60;;;;;;;10.44;100.00;97584.94;5121435;27;20036;-92
2024/01/08 08:20:07;;;;;;;3.47;0.90;;;;;;;10.44;100.00;97579.63;5120357;27;20027;-94
2024/01/08 08:22:33;;;;;;;2.53;0.93;;;;;;;10.40;100.00;97545.28;5122857;27;20045;-93
2024/01/08 08:25:16;;;;;;;7.18;1.13;;;;;;;10.68;100.00;97608.66;5125950;27;20403;-93
2024/01/08 08:27:42;;;;;;;5.45;1.20;;;;;;;10.21;100.00;97522.19;5122057;27;20129;-92
2024/01/08 08:30:12;;;;;;;2.95;0.95;;;;;;;10.32;100.00;97534.13;5124920;27;20041;-91
2024/01/08 08:32:39;;;;;;;5.05;1.10;;;;;;;9.86;100.00;97527.25;5123008;27;20039;-94
2024/01/08 08:35:06;;;;;;;4.43;1.38;;;;;;;10.50;100.00;97614.84;5123256;27;20042;-94
2024/01/08 08:37:32;;;;;;;7.30;1.70;;;;;;;10.35;100.00;97587.16;5119815;27;20083;-93
2024/01/08 08:39:59;;;;;;;1.52;0.88;;;;;;;10.02;100.00;97538.09;5120165;27;20036;-93
2024/01/08 08:42:27;;;;;;;4.03;1.13;;;;;;;10.30;100.00;97597.13;5120272;27;20130;-93
2024/01/08 08:44:52;;;;;;;3.42;1.02;;;;;;;10.34;100.00;97604.03;5120250;27;20050;-93
2024/01/08 08:47:21;;;;;;;2.40;0.95;;;;;;;10.66;100.00;97629.16;5117134;27;20084;-94
2024/01/08 08:49:50;;;;;;;1.83;1.00;;;;;;;10.59;100.00;97635.69;5123107;27;20039;-93
2024/01/08 08:52:15;;;;;;;5.35;0.90;;;;;;;10.31;100.00;97628.94;5124090;27;20039;-92
2024/01/08 08:54:41;;;;;;;8.18;0.70;;;;;;;10.34;100.00;97615.50;5122783;27;20387;-91
2024/01/08 08:57:08;;;;;;;4.28;1.20;;;;;;;10.13;100.00;97597.81;5122152;27;20051;-89
2024/01/08 08:59:38;;;;;;;4.65;0.93;;;;;;;10.28;100.00;97584.75;5122248;27;20054;-92
2024/01/08 09:02:04;;;;;;;7.28;2.03;;;;;;;10.42;100.00;97584.13;5120880;27;20039;-92
2024/01/08 09:04:30;;;;;;;4.45;1.02;;;;;;;10.61;100.00;97629.34;5123355;27;20043;-93
2024/01/08 09:06:58;;;;;;;4.97;1.08;;;;;;;9.72;100.00;97560.69;5121466;27;20522;-93
2024/01/08 09:09:24;;;;;;;2.50;0.80;;;;;;;9.94;100.00;97621.69;5120998;27;20488;-94
2024/01/08 09:11:50;;;;;;;5.13;1.15;;;;;;;10.06;100.00;97631.75;5121422;27;20110;-95
2024/01/08 09:14:16;;;;;;;3.45;1.15;;;;;;;10.09;100.00;97623.69;5121791;27;20170;-92
2024/01/08 09:16:43;;;;;;;2.35;0.88;;;;;;;9.89;100.00;97635.16;5117921;27;20034;-91
2024/01/08 09:19:09;;;;;;;4.50;1.23;;;;;;;9.86;100.00;97644.09;5119737;27;20126;-90
2024/01/08 09:21:35;;;;;;;2.33;0.88;;;;;;;10.01;100.00;97655.00;5119725;27;20067;-91
2024/01/08 09:24:01;;;;;;;2.00;1.00;;;;;;;10.04;100.00;97676.13;5120918;27;20067;-95
2024/01/08 09:26:26;;;;;;;4.10;1.30;;;;;;;9.74;100.00;97659.72;5112821;28;20443;-91
2024/01/08 09:28:52;;;;;;;2.92;0.82;;;;;;;9.63;100.00;97661.00;5085281;28;20071;-91
2024/01/08 09:31:22;;;;;;;2.13;0.77;;;;;;;10.12;100.00;97666.03;5088905;28;20043;-91
2024/01/08 09:33:51;;;;;;;4.38;1.10;;;;;;;9.38;100.00;97608.06;5086857;28;20042;-92
2024/01/08 09:36:17;;;;;;;6.22;0.85;;;;;;;10.01;100.00;97655.88;5086735;28;20047;-91
2024/01/08 09:38:46;;;;;;;2.67;0.73;;;;;;;9.93;100.00;97658.00;5091294;28;20397;-91
2024/01/08 09:41:12;;;;;;;3.45;1.02;;;;;;;9.89;100.00;97696.25;5085431;28;20044;-88
2024/01/08 09:43:44;;;;;;;4.43;0.88;;;;;;;9.83;100.00;97700.00;5086666;28;20515;-92
2024/01/08 09:46:15;;;;;;;6.57;1.15;;;;;;;9.77;100.00;97704.69;5085892;28;20051;-89
2024/01/08 09:48:43;;;;;;;1.73;0.80;;;;;;;9.69;100.00;97680.25;5084626;28;20036;-91
2024/01/08 09:51:13;;;;;;;3.17;1.00;;;;;;;9.72;100.00;97723.47;5085293;28;20071;-93
2024/01/08 09:53:39;;;;;;;2.90;1.20;;;;;;;9.36;100.00;97648.84;5087436;28;20082;-93
2024/01/08 09:56:08;;;;;;;3.40;1.00;;;;;;;9.60;100.00;97684.16;5087171;28;20663;-91
2024/01/08 09:58:36;;;;;;;3.83;0.93;;;;;;;9.77;100.00;97673.69;5087362;28;20035;-92
2024/01/08 10:01:04;;;;;;;4.80;0.70;;;;;;;10.07;100.00;97714.03;5088515;28;20086;-91
2024/01/08 10:03:30;;;;;;;6.47;1.10;;;;;;;10.36;100.00;97703.13;5090853;28;20082;-92
2024/01/08 10:05:56;;;;;;;3.83;1.20;;;;;;;10.11;100.00;97663.47;5084502;28;20044;-90
2024/01/08 10:08:23;;;;;;;3.15;0.90;;;;;;;10.14;100.00;97653.56;5086677;28;20123;-91
2024/01/08 10:10:52;;;;;;;1.52;0.60;;;;;;;10.30;100.00;97652.91;5083445;28;20050;-90
2024/01/08 10:13:18;;;;;;;5.18;0.93;;;;;;;10.05;100.00;97681.38;5083386;28;20066;-90
2024/01/08 10:15:47;;;;;;;3.35;0.93;;;;;;;10.04;100.00;97670.81;5086189;28;20056;-94
2024/01/08 10:18:16;;;;;;;4.95;0.80;;;;;;;10.05;100.00;97702.63;5085145;28;20044;-92
2024/01/08 10:20:44;;;;;;;2.97;0.80;;;;;;;10.10;100.00;97677.66;5081046;28;20135;-91
2024/01/08 10:23:12;;;;;;;2.25;0.70;;;;;;;10.39;100.00;97703.88;5083206;28;20040;-92
2024/01/08 10:25:42;;;;;;;1.60;0.85;;;;;;;10.15;100.00;97673.00;5089507;28;20413;-91
2024/01/08 10:28:08;;;;;;;;;;;;;;;10.31;100.00;97740.53;5094849;28;20032;-90
2024/01/08 10:30:34;;;;;;;4.53;0.90;;;;;;;10.22;100.00;97693.09;5096294;28;20340;-91
2024/01/08 10:33:00;;;;;;;5.47;1.02;;;;;;;10.11;100.00;97643.06;5099150;28;20043;-91
2024/01/08 10:35:28;;;;;;;2.45;0.90;;;;;;;10.42;100.00;97671.84;5102273;28;20069;-92
2024/01/08 10:37:56;;;;;;;3.33;0.98;;;;;;;10.38;100.00;97714.56;5097118;28;20036;-94
2024/01/08 10:40:23;;;;;;;7.55;1.15;;;;;;;10.11;100.00;97650.19;5099281;28;20071;-92
2024/01/08 10:42:54;;;;;;;6.57;1.00;;;;;;;10.72;100.00;97729.91;5098962;28;20122;-93
2024/01/08 10:45:20;;;;;;;5.72;1.05;;;;;;;10.41;100.00;97695.81;5095492;28;20039;-92
2024/01/08 10:47:52;;;;;;;5.03;1.20;;;;;;;10.48;100.00;97686.66;5097678;28;20026;-94
2024/01/08 10:50:22;;;;;;;1.52;0.90;;;;;;;10.40;100.00;97652.44;5097850;28;20610;-93
2024/01/08 10:52:56;;;;;;;;;;;;;;;10.71;100.00;97727.31;5097921;28;20036;-93
2024/01/08 10:55:23;;;;;;;2.90;1.42;;;;;;;10.08;100.00;97640.53;5095604;28;19947;-91
2024/01/08 10:58:00;;;;;;;4.55;1.25;;;;;;;10.65;100.00;97685.94;5095894;28;20040;-92
2024/01/08 11:00:27;;;;;;;4.97;1.17;;;;;;;10.88;100.00;97688.38;5096052;28;20120;-90
2024/01/08 11:02:54;;;;;;;3.30;1.23;;;;;;;10.69;100.00;97634.31;5093456;28;20896;-92
2024/01/08 11:05:22;;;;;;;5.32;1.15;;;;;;;11.41;100.00;97693.97;5096241;28;20039;-93
2024/01/08 11:07:50;;;;;;;3.90;1.13;;;;;;;10.51;100.00;97629.84;5094128;28;20557;-93
2024/01/08 11:10:17;;;;;;;15.48;1.40;;;;;;;11.20;100.00;97703.81;5095126;28;20059;-92
2024/01/08 11:12:51;;;;;;;5.20;1.85;;;;;;;11.14;100.00;97706.75;5092531;28;20048;-91
2024/01/08 11:15:18;;;;;;;4.93;1.10;;;;;;;10.58;100.00;97612.69;5089626;28;20501;-91
2024/01/08 11:17:50;;;;;;;6.60;1.70;;;;;;;11.24;100.00;97660.16;5092072;28;20086;-92
2024/01/08 11:20:41;;;;;;;9.38;1.90;;;;;;;11.54;100.00;97708.41;5094320;28;20040;-93
2024/01/08 11:23:36;;;;;;;6.22;1.83;;;;;;;11.67;100.00;97698.88;5095191;28;20535;-92
2024/01/08 11:26:04;;;;;;;4.13;2.40;;;;;;;11.66;100.00;97705.13;5099110;27;20050;-93
2024/01/08 11:28:34;;;;;;;4.72;1.50;;;;;;;11.46;100.00;97698.09;5085399;28;20465;-90
2024/01/08 11:31:33;;;;;;;4.65;1.30;;;;;;;11.04;100.00;97695.69;5097022;28;20116;-91
2024/01/08 11:34:29;;;;;;;6.95;1.73;;;;;;;11.18;100.00;97703.00;5103116;28;20054;-92
2024/01/08 11:37:12;;;;;;;5.18;1.52;;;;;;;11.41;100.00;97732.09;5101412;28;20584;-92